Time;durP1;ratioP1;P1;durP2;ratioP2;P2;SDS_P1;SDS_P2;PMS_P1;PMS_P2;Temp;Humidity;BMP_temperature;BMP_pressure;BME280_temperature;BME280_humidity;BME280_pressure;Samples;Min_cycle;Max_cycle;Signal;HPM_P1;HPM_P2
2023/12/25 00:01:15;;;;;;;1.45;0.15;;;11.80;99.90;;;;;;5053508;28;20029;-63
2023/12/25 00:03:41;;;;;;;0.00;0.00;;;11.80;99.90;;;;;;5053440;28;20055;-63
2023/12/25 00:06:09;;;;;;;0.65;0.20;;;11.90;99.90;;;;;;5053394;28;20025;-64
2023/12/25 00:08:35;;;;;;;0.73;0.20;;;11.90;99.90;;;;;;5053811;28;20108;-62
2023/12/25 00:11:00;;;;;;;0.95;0.10;;;11.90;99.90;;;;;;5053377;28;20487;-62
2023/12/25 00:13:28;;;;;;;0.60;0.30;;;11.90;99.90;;;;;;5052967;28;20021;-63
2023/12/25 00:15:54;;;;;;;1.05;0.30;;;11.90;99.90;;;;;;5053433;28;20353;-63
2023/12/25 00:18:22;;;;;;;0.30;0.10;;;11.90;99.90;;;;;;5053934;28;20085;-63
2023/12/25 00:20:47;;;;;;;0.43;0.20;;;11.90;99.90;;;;;;5053152;28;20028;-63
2023/12/25 00:23:13;;;;;;;0.60;0.20;;;11.90;99.90;;;;;;5052101;28;20029;-63
2023/12/25 00:25:39;;;;;;;0.30;0.10;;;11.90;99.90;;;;;;5051732;28;20473;-63
2023/12/25 00:28:05;;;;;;;2.10;0.20;;;11.90;99.90;;;;;;5052159;28;20021;-65
2023/12/25 00:30:31;;;;;;;1.90;0.30;;;11.90;99.90;;;;;;5052597;28;20032;-63
2023/12/25 00:32:56;;;;;;;1.15;0.20;;;12.00;99.90;;;;;;5054012;28;20463;-63
2023/12/25 00:35:22;;;;;;;0.93;0.30;;;11.90;99.90;;;;;;5053293;28;20385;-63
2023/12/25 00:37:47;;;;;;;0.20;0.20;;;11.80;99.90;;;;;;5053519;28;20100;-63
2023/12/25 00:40:13;;;;;;;0.57;0.10;;;11.80;99.90;;;;;;5051895;28;20021;-62
2023/12/25 00:42:39;;;;;;;1.65;0.10;;;11.80;99.90;;;;;;5054439;28;20074;-63
2023/12/25 00:45:05;;;;;;;1.58;0.20;;;11.80;99.90;;;;;;5056867;28;20449;-63
2023/12/25 00:47:30;;;;;;;0.50;0.10;;;11.80;99.90;;;;;;5055364;28;20086;-63
2023/12/25 00:49:56;;;;;;;0.93;0.30;;;11.80;99.90;;;;;;5056609;28;20460;-63
2023/12/25 00:52:21;;;;;;;0.98;0.10;;;11.80;99.90;;;;;;5055117;28;20128;-63
2023/12/25 00:54:47;;;;;;;0.68;0.10;;;11.80;99.90;;;;;;5055219;28;20095;-63
2023/12/25 00:57:14;;;;;;;0.38;0.13;;;11.90;99.90;;;;;;5056945;28;20025;-63
2023/12/25 00:59:39;;;;;;;1.85;0.38;;;11.90;99.90;;;;;;5056396;28;20086;-63
2023/12/25 01:02:05;;;;;;;0.90;0.30;;;11.90;99.90;;;;;;5056811;28;20025;-63
2023/12/25 01:04:31;;;;;;;0.38;0.10;;;12.00;99.90;;;;;;5056295;28;20381;-63
2023/12/25 01:06:56;;;;;;;1.45;0.20;;;12.10;99.90;;;;;;5056694;28;20408;-63
2023/12/25 01:09:22;;;;;;;0.32;0.10;;;12.10;99.90;;;;;;5054911;28;20021;-63
2023/12/25 01:11:47;;;;;;;1.92;0.20;;;12.10;99.90;;;;;;5055063;28;20036;-63
2023/12/25 01:14:13;;;;;;;0.47;0.08;;;12.10;99.90;;;;;;5056120;28;20049;-63
2023/12/25 01:16:39;;;;;;;0.55;0.10;;;12.20;99.90;;;;;;5054853;28;20029;-63
2023/12/25 01:19:05;;;;;;;1.00;0.30;;;12.20;99.90;;;;;;5055988;28;20040;-63
2023/12/25 01:21:32;;;;;;;3.65;0.10;;;12.30;99.90;;;;;;5056220;28;20068;-63
2023/12/25 01:23:58;;;;;;;0.63;0.20;;;12.30;99.90;;;;;;5055628;28;20415;-63
2023/12/25 01:26:23;;;;;;;0.15;0.00;;;12.30;99.90;;;;;;5054652;28;20028;-63
2023/12/25 01:28:49;;;;;;;1.55;0.25;;;12.30;99.90;;;;;;5056041;28;20376;-63
2023/12/25 01:31:15;;;;;;;1.17;0.22;;;12.30;99.90;;;;;;5055811;28;20032;-63
2023/12/25 01:33:40;;;;;;;1.30;0.28;;;12.30;99.90;;;;;;5055747;28;20449;-63
2023/12/25 01:36:06;;;;;;;1.33;0.17;;;12.20;99.90;;;;;;5055634;28;20036;-63
2023/12/25 01:38:31;;;;;;;1.05;0.00;;;12.30;99.90;;;;;;5055840;28;20057;-63
2023/12/25 01:40:57;;;;;;;1.17;0.20;;;12.30;99.90;;;;;;5055635;28;20025;-63
2023/12/25 01:43:23;;;;;;;0.70;0.10;;;12.30;99.90;;;;;;5055849;28;20036;-63
2023/12/25 01:45:48;;;;;;;1.85;0.17;;;12.30;99.90;;;;;;5055810;28;20496;-63
2023/12/25 01:48:15;;;;;;;0.13;0.10;;;12.40;99.90;;;;;;5054256;28;20078;-63
2023/12/25 01:50:40;;;;;;;0.85;0.17;;;12.40;99.90;;;;;;5054186;28;20094;-63
2023/12/25 01:53:06;;;;;;;2.60;0.47;;;12.60;99.90;;;;;;5054280;28;20404;-63
2023/12/25 01:55:32;;;;;;;0.98;0.10;;;12.70;99.90;;;;;;5055411;28;20466;-63
2023/12/25 01:57:57;;;;;;;0.75;0.17;;;12.80;99.90;;;;;;5055096;28;20166;-63
2023/12/25 02:00:23;;;;;;;0.10;0.10;;;12.90;99.90;;;;;;5055338;28;20036;-63
2023/12/25 02:02:49;;;;;;;0.00;0.00;;;12.90;99.90;;;;;;5055342;28;20025;-63
2023/12/25 02:05:16;;;;;;;0.63;0.20;;;12.90;99.90;;;;;;5054913;28;20025;-63
2023/12/25 02:07:43;;;;;;;1.95;0.15;;;12.90;99.90;;;;;;5055077;28;20025;-63
2023/12/25 02:10:09;;;;;;;0.60;0.13;;;12.90;99.90;;;;;;5055379;28;20033;-63
2023/12/25 02:12:38;;;;;;;1.65;0.17;;;12.90;99.90;;;;;;5055024;28;20368;-63
2023/12/25 02:15:04;;;;;;;0.87;0.10;;;12.90;99.90;;;;;;5054985;28;20051;-63
2023/12/25 02:17:30;;;;;;;1.80;0.10;;;12.90;99.90;;;;;;5053553;28;20048;-63
2023/12/25 02:19:56;;;;;;;1.45;0.10;;;12.90;99.90;;;;;;5054846;28;20053;-63
2023/12/25 02:22:22;;;;;;;0.65;0.10;;;13.00;99.90;;;;;;5054812;28;20108;-63
2023/12/25 02:25:18;;;;;;;0.10;0.10;;;13.00;99.90;;;;;;5054963;28;20105;-63
2023/12/25 02:27:44;;;;;;;0.20;0.00;;;13.00;99.90;;;;;;5051161;28;20119;-63
2023/12/25 02:30:09;;;;;;;0.40;0.20;;;13.00;99.90;;;;;;5054739;28;20100;-63
2023/12/25 02:32:35;;;;;;;0.30;0.00;;;13.10;99.90;;;;;;5053385;28;20028;-63
2023/12/25 02:35:01;;;;;;;0.15;0.00;;;13.20;99.90;;;;;;5054833;28;20029;-63
2023/12/25 02:37:26;;;;;;;0.47;0.00;;;13.20;99.90;;;;;;5054430;28;20033;-63
2023/12/25 02:39:52;;;;;;;0.10;0.10;;;13.20;99.90;;;;;;5053235;28;20041;-63
2023/12/25 02:42:17;;;;;;;0.35;0.03;;;13.10;99.90;;;;;;5054983;28;20021;-63
2023/12/25 02:44:43;;;;;;;0.28;0.10;;;13.10;99.90;;;;;;5054808;28;20056;-63
2023/12/25 02:47:09;;;;;;;1.65;0.05;;;13.10;99.90;;;;;;5054412;28;20029;-63
2023/12/25 02:49:34;;;;;;;0.65;0.00;;;13.20;99.90;;;;;;5054342;28;20480;-63
2023/12/25 02:52:00;;;;;;;0.50;0.10;;;13.30;99.90;;;;;;5054169;28;20060;-63
2023/12/25 02:54:25;;;;;;;2.70;0.20;;;13.20;99.90;;;;;;5053042;28;20373;-63
2023/12/25 02:56:51;;;;;;;0.00;0.00;;;13.10;99.90;;;;;;5054193;28;20032;-63
2023/12/25 02:59:17;;;;;;;2.15;0.35;;;13.20;99.90;;;;;;5054442;28;20086;-63
2023/12/25 03:01:42;;;;;;;0.30;0.20;;;13.20;99.90;;;;;;5054139;28;20368;-63
2023/12/25 03:04:08;;;;;;;1.67;0.10;;;13.10;99.90;;;;;;5053847;28;20104;-63
2023/12/25 03:06:34;;;;;;;0.95;0.10;;;13.20;99.90;;;;;;5053993;28;20045;-63
2023/12/25 03:08:59;;;;;;;1.08;0.10;;;13.20;99.90;;;;;;5054047;28;20031;-63
2023/12/25 03:11:25;;;;;;;0.03;0.00;;;13.10;99.90;;;;;;5053994;28;20025;-63
2023/12/25 03:13:50;;;;;;;0.55;0.30;;;13.10;99.90;;;;;;5054001;28;20025;-63
2023/12/25 03:16:18;;;;;;;1.75;0.20;;;13.20;99.90;;;;;;5053833;28;20029;-63
2023/12/25 03:18:44;;;;;;;0.10;0.10;;;13.20;99.90;;;;;;5053983;28;20523;-63
2023/12/25 03:21:10;;;;;;;5.18;0.35;;;13.30;99.90;;;;;;5052854;28;20025;-63
2023/12/25 03:23:35;;;;;;;1.10;0.10;;;13.30;99.90;;;;;;5054298;28;20453;-63
2023/12/25 03:26:01;;;;;;;0.63;0.10;;;13.30;99.90;;;;;;5053814;28;20033;-63
2023/12/25 03:28:27;;;;;;;0.90;0.47;;;13.30;99.90;;;;;;5052489;28;20119;-63
2023/12/25 03:30:54;;;;;;;0.10;0.10;;;13.30;99.90;;;;;;5053829;28;20126;-63
2023/12/25 03:33:20;;;;;;;0.55;0.10;;;13.30;99.90;;;;;;5053730;28;20108;-63
2023/12/25 03:35:45;;;;;;;1.45;0.17;;;13.20;99.90;;;;;;5053721;28;20170;-63
2023/12/25 03:38:12;;;;;;;0.95;0.00;;;13.10;99.90;;;;;;5053370;28;20057;-63
2023/12/25 03:40:39;;;;;;;0.20;0.00;;;13.10;99.90;;;;;;5053663;28;20040;-63
2023/12/25 03:43:05;;;;;;;0.10;0.00;;;13.20;99.90;;;;;;5053616;28;20481;-63
2023/12/25 03:45:30;;;;;;;1.00;0.10;;;13.20;99.90;;;;;;5053606;28;20031;-63
2023/12/25 03:47:56;;;;;;;1.85;0.10;;;13.30;99.90;;;;;;5053600;28;20083;-63
2023/12/25 03:50:21;;;;;;;0.57;0.10;;;13.30;99.90;;;;;;5053833;28;20567;-63
2023/12/25 03:52:47;;;;;;;1.15;0.00;;;13.40;99.90;;;;;;5053884;28;20124;-63
2023/12/25 03:55:13;;;;;;;0.82;0.08;;;13.50;99.90;;;;;;5053821;28;20526;-64
2023/12/25 03:57:39;;;;;;;0.20;0.10;;;13.50;99.90;;;;;;5054155;28;20055;-63
2023/12/25 04:00:06;;;;;;;0.65;0.00;;;13.50;99.90;;;;;;5053802;28;20449;-63
2023/12/25 04:02:31;;;;;;;2.45;0.10;;;13.60;99.90;;;;;;5053514;28;20112;-63
2023/12/25 04:04:57;;;;;;;1.80;0.00;;;13.50;99.90;;;;;;5053665;28;20104;-63
2023/12/25 04:07:22;;;;;;;0.20;0.05;;;13.50;99.90;;;;;;5053403;28;20033;-63
2023/12/25 04:09:48;;;;;;;0.40;0.00;;;13.50;99.90;;;;;;5052340;28;20025;-63
2023/12/25 04:12:13;;;;;;;0.65;0.08;;;13.40;99.90;;;;;;5053330;28;20025;-63
2023/12/25 04:14:39;;;;;;;0.00;0.00;;;13.50;99.90;;;;;;5053292;28;20384;-63
2023/12/25 04:17:05;;;;;;;0.82;0.00;;;13.50;99.90;;;;;;5054367;28;20032;-63
2023/12/25 04:19:31;;;;;;;0.13;0.00;;;13.40;99.90;;;;;;5057337;28;20060;-63
2023/12/25 04:21:57;;;;;;;0.77;0.10;;;13.50;99.90;;;;;;5057349;28;20427;-63
2023/12/25 04:24:23;;;;;;;0.73;0.00;;;13.50;99.90;;;;;;5056820;28;20029;-63
2023/12/25 04:26:48;;;;;;;0.45;0.10;;;13.50;99.90;;;;;;5057083;28;20029;-63
2023/12/25 04:29:14;;;;;;;0.10;0.10;;;13.40;99.90;;;;;;5056947;28;20032;-63
2023/12/25 04:31:39;;;;;;;0.47;0.10;;;13.40;99.90;;;;;;5057362;28;20112;-63
2023/12/25 04:34:05;;;;;;;0.17;0.10;;;13.40;99.90;;;;;;5056956;28;20027;-63
2023/12/25 04:36:30;;;;;;;0.08;0.00;;;13.50;99.90;;;;;;5056863;28;20106;-63
2023/12/25 04:38:58;;;;;;;1.45;0.10;;;13.40;99.90;;;;;;5055559;28;20411;-62
2023/12/25 04:41:24;;;;;;;0.38;0.08;;;13.30;99.90;;;;;;5057088;28;20021;-63
2023/12/25 04:43:50;;;;;;;0.73;0.00;;;13.40;99.90;;;;;;5055616;28;20086;-63
2023/12/25 04:46:17;;;;;;;0.05;0.00;;;13.40;99.90;;;;;;5056916;28;20029;-63
2023/12/25 04:48:43;;;;;;;1.02;0.10;;;13.30;99.90;;;;;;5056658;28;20032;-63
2023/12/25 04:51:08;;;;;;;0.20;0.00;;;13.30;99.90;;;;;;5056852;28;20028;-63
2023/12/25 04:53:36;;;;;;;0.10;0.10;;;13.30;99.90;;;;;;5056624;28;20461;-63
2023/12/25 04:56:02;;;;;;;0.65;0.10;;;13.20;99.90;;;;;;5055442;28;20385;-63
2023/12/25 04:58:28;;;;;;;0.25;0.00;;;13.20;99.90;;;;;;5056348;28;20492;-63
2023/12/25 05:00:54;;;;;;;0.82;0.10;;;13.20;99.90;;;;;;5056418;28;20036;-63
2023/12/25 05:03:21;;;;;;;0.47;0.00;;;13.20;99.90;;;;;;5056411;28;20032;-63
2023/12/25 05:05:50;;;;;;;0.20;0.00;;;13.20;99.90;;;;;;5055109;28;20029;-63
2023/12/25 05:08:18;;;;;;;;;;;13.20;99.90;;;;;;5056662;28;20036;-63
2023/12/25 05:10:44;;;;;;;0.10;0.00;;;13.20;99.90;;;;;;5056238;28;19905;-63
2023/12/25 05:13:10;;;;;;;0.00;0.00;;;13.10;99.90;;;;;;5054904;28;20092;-63
2023/12/25 05:15:35;;;;;;;0.00;0.00;;;13.10;99.90;;;;;;5056388;28;20083;-63
2023/12/25 05:18:01;;;;;;;1.65;0.25;;;13.10;99.90;;;;;;5056103;28;20040;-63
2023/12/25 05:20:27;;;;;;;2.38;0.15;;;13.00;99.90;;;;;;5056024;28;20100;-63
2023/12/25 05:22:53;;;;;;;2.08;0.08;;;13.00;99.90;;;;;;5055747;28;20104;-63
2023/12/25 05:25:18;;;;;;;0.40;0.20;;;13.00;99.90;;;;;;5055949;28;20047;-63
2023/12/25 05:27:44;;;;;;;0.10;0.08;;;13.00;99.90;;;;;;5054173;28;20029;-63
2023/12/25 05:30:10;;;;;;;0.30;0.00;;;12.90;99.90;;;;;;5055260;28;20031;-63
2023/12/25 05:32:37;;;;;;;0.03;0.00;;;12.90;99.90;;;;;;5055832;28;20116;-63
2023/12/25 05:35:04;;;;;;;0.85;0.00;;;12.90;99.90;;;;;;5055879;28;20104;-63
2023/12/25 05:37:30;;;;;;;0.10;0.05;;;13.00;99.90;;;;;;5055628;28;20029;-63
2023/12/25 05:39:55;;;;;;;0.80;0.10;;;13.00;99.90;;;;;;5055915;28;20037;-62
2023/12/25 05:42:21;;;;;;;1.20;0.10;;;13.00;99.90;;;;;;5055601;28;20107;-63
2023/12/25 05:44:47;;;;;;;0.00;0.00;;;12.90;99.90;;;;;;5055634;28;20033;-63
2023/12/25 05:47:13;;;;;;;0.38;0.10;;;12.90;99.90;;;;;;5054262;28;20020;-63
2023/12/25 05:49:39;;;;;;;0.22;0.10;;;12.90;99.90;;;;;;5055227;28;20116;-63
2023/12/25 05:52:05;;;;;;;0.52;0.03;;;12.80;99.90;;;;;;5055068;28;20127;-62
2023/12/25 05:54:30;;;;;;;1.17;0.00;;;12.90;99.90;;;;;;5055397;28;20163;-63
2023/12/25 05:56:56;;;;;;;0.00;0.00;;;12.90;99.90;;;;;;5054073;28;20480;-63
2023/12/25 05:59:21;;;;;;;1.23;0.10;;;12.90;99.90;;;;;;5054020;28;20029;-63
2023/12/25 06:01:47;;;;;;;0.75;0.15;;;12.90;99.90;;;;;;5054026;28;20025;-63
2023/12/25 06:04:13;;;;;;;0.30;0.10;;;12.80;99.90;;;;;;5053489;28;20024;-63
2023/12/25 06:06:38;;;;;;;0.00;0.00;;;12.80;99.90;;;;;;5054911;28;20033;-63
2023/12/25 06:09:04;;;;;;;0.00;0.00;;;12.80;99.90;;;;;;5054843;28;20060;-63
2023/12/25 06:11:30;;;;;;;0.68;0.20;;;12.80;99.90;;;;;;5055358;28;20029;-63
2023/12/25 06:13:56;;;;;;;0.63;0.10;;;12.70;99.90;;;;;;5054263;28;20377;-63
2023/12/25 06:16:22;;;;;;;2.35;0.20;;;12.60;99.90;;;;;;5053640;28;20082;-63
2023/12/25 06:18:47;;;;;;;0.10;0.00;;;12.50;99.90;;;;;;5053794;28;20029;-63
2023/12/25 06:21:14;;;;;;;0.17;0.00;;;12.50;99.90;;;;;;5044595;28;20030;-63
2023/12/25 06:23:40;;;;;;;0.05;0.00;;;12.50;99.90;;;;;;5034942;28;20116;-63
2023/12/25 06:26:06;;;;;;;2.17;0.00;;;12.50;99.90;;;;;;5033602;28;20120;-63
2023/12/25 06:28:31;;;;;;;0.10;0.10;;;12.40;99.90;;;;;;5038957;28;20033;-63
2023/12/25 06:30:57;;;;;;;1.05;0.15;;;12.40;99.90;;;;;;5054887;28;20152;-63
2023/12/25 06:33:23;;;;;;;0.20;0.00;;;12.30;99.90;;;;;;5054917;28;20024;-63
2023/12/25 06:35:49;;;;;;;0.35;0.20;;;12.30;99.90;;;;;;5054821;28;20067;-63
2023/12/25 06:38:15;;;;;;;0.10;0.08;;;12.40;99.90;;;;;;5054598;28;20488;-69
2023/12/25 06:40:40;;;;;;;0.95;0.10;;;12.40;99.90;;;;;;5054267;28;20020;-62
2023/12/25 06:43:07;;;;;;;0.25;0.05;;;12.40;99.90;;;;;;5052941;28;20029;-62
2023/12/25 06:45:34;;;;;;;2.55;0.10;;;12.40;99.90;;;;;;5053008;28;20063;-63
2023/12/25 06:47:59;;;;;;;0.40;0.10;;;12.40;99.90;;;;;;5063886;28;20021;-62
2023/12/25 06:50:25;;;;;;;0.32;0.05;;;12.30;99.90;;;;;;5054600;28;20017;-62
2023/12/25 06:52:51;;;;;;;0.25;0.10;;;12.30;99.90;;;;;;5054592;28;20080;-62
2023/12/25 06:55:16;;;;;;;0.13;0.00;;;12.30;99.90;;;;;;5052133;28;20029;-63
2023/12/25 06:57:42;;;;;;;0.38;0.00;;;12.30;99.90;;;;;;5055848;28;20036;-63
2023/12/25 07:00:08;;;;;;;0.30;0.20;;;12.30;99.90;;;;;;5062197;28;20081;-63
2023/12/25 07:02:34;;;;;;;0.28;0.03;;;12.30;99.90;;;;;;5074417;28;20465;-62
2023/12/25 07:05:00;;;;;;;0.52;0.03;;;12.20;99.90;;;;;;5073899;28;20029;-62
2023/12/25 07:07:25;;;;;;;1.85;0.10;;;12.30;99.90;;;;;;5074103;28;20025;-62
2023/12/25 07:09:51;;;;;;;1.95;0.10;;;12.20;99.90;;;;;;5074305;28;20103;-62
2023/12/25 07:12:17;;;;;;;0.20;0.10;;;12.30;99.90;;;;;;5074078;28;20060;-62
2023/12/25 07:14:45;;;;;;;1.45;0.10;;;12.30;99.90;;;;;;5074239;28;20021;-63
2023/12/25 07:17:10;;;;;;;0.30;0.20;;;12.30;99.90;;;;;;5074208;28;20403;-63
2023/12/25 07:19:36;;;;;;;0.13;0.10;;;12.30;99.90;;;;;;5075147;28;20028;-64
2023/12/25 07:22:02;;;;;;;0.40;0.10;;;12.30;99.90;;;;;;5061832;28;20057;-63
2023/12/25 07:24:28;;;;;;;0.43;0.05;;;12.40;99.90;;;;;;5054458;28;20032;-62
2023/12/25 07:26:53;;;;;;;0.13;0.10;;;12.50;99.90;;;;;;5053925;28;20469;-63
2023/12/25 07:29:20;;;;;;;0.20;0.00;;;12.50;99.90;;;;;;5053701;28;20039;-62
2023/12/25 07:31:45;;;;;;;0.60;0.10;;;12.50;99.90;;;;;;5052385;28;20078;-63
2023/12/25 07:34:11;;;;;;;0.17;0.00;;;12.50;99.90;;;;;;5053635;28;20032;-62
2023/12/25 07:36:37;;;;;;;0.10;0.03;;;12.60;99.90;;;;;;5053489;28;20115;-63
2023/12/25 07:39:04;;;;;;;0.30;0.00;;;12.60;99.90;;;;;;5052277;28;20032;-63
2023/12/25 07:41:29;;;;;;;0.30;0.00;;;12.60;99.90;;;;;;5053610;28;20017;-63
2023/12/25 07:44:00;;;;;;;0.20;0.10;;;12.70;99.90;;;;;;5052299;28;20441;-63
2023/12/25 07:46:26;;;;;;;0.65;0.10;;;12.70;99.90;;;;;;5053571;28;20021;-63
2023/12/25 07:48:52;;;;;;;0.30;0.00;;;12.80;99.80;;;;;;5052092;28;20033;-63
2023/12/25 07:51:17;;;;;;;0.77;0.00;;;12.90;99.20;;;;;;5053641;28;20032;-63
2023/12/25 07:53:43;;;;;;;0.15;0.00;;;12.90;98.60;;;;;;5058175;28;20053;-63
2023/12/25 07:56:09;;;;;;;0.10;0.10;;;13.10;98.10;;;;;;5057472;28;20456;-63
2023/12/25 07:58:35;;;;;;;0.17;0.10;;;13.10;97.70;;;;;;5057606;28;20078;-63
2023/12/25 08:01:01;;;;;;;0.30;0.00;;;13.20;97.70;;;;;;5057349;28;20025;-63
2023/12/25 08:03:27;;;;;;;0.73;0.10;;;13.20;97.50;;;;;;5057699;28;20457;-63
2023/12/25 08:05:53;;;;;;;1.00;0.22;;;13.20;97.10;;;;;;5057305;28;20024;-62
2023/12/25 08:08:18;;;;;;;0.45;0.00;;;13.20;97.00;;;;;;5057606;28;20107;-63
2023/12/25 08:10:44;;;;;;;1.55;0.10;;;13.30;96.60;;;;;;5057283;28;20096;-63
2023/12/25 08:13:10;;;;;;;1.20;0.10;;;13.30;96.40;;;;;;5055882;28;20025;-63
2023/12/25 08:15:36;;;;;;;4.50;0.25;;;13.40;96.00;;;;;;5055817;28;20028;-63
2023/12/25 08:18:01;;;;;;;0.95;0.00;;;13.40;95.90;;;;;;5055833;28;20037;-63
2023/12/25 08:20:27;;;;;;;0.20;0.00;;;13.40;95.70;;;;;;5056653;28;20036;-63
2023/12/25 08:22:53;;;;;;;2.45;0.30;;;13.40;95.90;;;;;;5056868;28;20025;-63
2023/12/25 08:25:18;;;;;;;0.20;0.20;;;13.40;95.80;;;;;;5057423;28;20031;-63
2023/12/25 08:27:44;;;;;;;0.73;0.10;;;13.40;95.80;;;;;;5057022;28;20072;-63
2023/12/25 08:30:11;;;;;;;1.33;0.10;;;13.40;95.70;;;;;;5055791;28;20025;-63
2023/12/25 08:32:36;;;;;;;0.10;0.10;;;13.40;95.50;;;;;;5057239;28;20037;-63
2023/12/25 08:35:03;;;;;;;1.25;0.25;;;13.50;95.30;;;;;;5057221;28;20036;-64
2023/12/25 08:37:29;;;;;;;0.22;0.10;;;13.50;95.30;;;;;;5057109;28;20028;-62
2023/12/25 08:39:54;;;;;;;0.30;0.08;;;13.50;94.90;;;;;;5056901;28;20096;-63
2023/12/25 08:42:20;;;;;;;2.80;0.10;;;13.50;94.90;;;;;;5056820;28;20485;-63
2023/12/25 08:44:47;;;;;;;0.20;0.10;;;13.50;94.50;;;;;;5056445;28;20033;-63
2023/12/25 08:47:14;;;;;;;0.38;0.10;;;13.50;94.40;;;;;;5055859;28;20388;-63
2023/12/25 08:49:40;;;;;;;0.40;0.10;;;13.60;94.30;;;;;;5056732;28;20028;-63
2023/12/25 08:52:06;;;;;;;2.67;0.10;;;13.60;94.20;;;;;;5056271;28;20087;-63
2023/12/25 08:54:32;;;;;;;0.80;0.13;;;13.60;94.10;;;;;;5056264;28;20033;-63
2023/12/25 08:57:00;;;;;;;0.20;0.20;;;13.60;94.00;;;;;;5056462;28;20043;-63
2023/12/25 08:59:26;;;;;;;0.73;0.25;;;13.60;94.00;;;;;;5055714;28;20052;-63
2023/12/25 09:01:52;;;;;;;1.15;0.10;;;13.60;94.00;;;;;;5055360;28;20472;-63
2023/12/25 09:04:17;;;;;;;1.52;0.10;;;13.60;94.00;;;;;;5056221;28;20100;-63
2023/12/25 09:06:43;;;;;;;5.00;0.20;;;13.60;93.80;;;;;;5056254;28;20021;-63
2023/12/25 09:09:10;;;;;;;0.32;0.10;;;13.60;93.40;;;;;;5056022;28;20106;-63
2023/12/25 09:11:36;;;;;;;0.47;0.10;;;13.50;93.70;;;;;;5056249;28;20063;-63
2023/12/25 09:14:02;;;;;;;1.05;0.10;;;13.50;93.90;;;;;;5056734;28;20029;-63
2023/12/25 09:16:28;;;;;;;0.25;0.10;;;13.50;93.90;;;;;;5056285;28;20086;-63
2023/12/25 09:18:54;;;;;;;0.32;0.00;;;13.50;94.10;;;;;;5056064;28;20025;-64
2023/12/25 09:21:20;;;;;;;1.20;0.10;;;13.40;94.10;;;;;;5055782;28;20516;-63
2023/12/25 09:23:47;;;;;;;0.80;0.17;;;13.40;94.40;;;;;;5054730;28;20532;-63
2023/12/25 09:26:19;;;;;;;0.40;0.10;;;13.40;94.40;;;;;;5055960;28;20033;-63
2023/12/25 09:28:45;;;;;;;1.80;0.20;;;13.40;94.50;;;;;;5056069;28;20048;-63
2023/12/25 09:31:12;;;;;;;0.50;0.10;;;13.40;94.70;;;;;;5054623;28;20460;-63
2023/12/25 09:33:37;;;;;;;0.90;0.22;;;13.50;95.20;;;;;;5055863;28;20025;-63
2023/12/25 09:36:04;;;;;;;0.10;0.10;;;13.50;95.60;;;;;;5055894;28;20039;-63
2023/12/25 09:38:30;;;;;;;0.30;0.15;;;13.60;95.90;;;;;;5056089;28;20461;-63
2023/12/25 09:40:56;;;;;;;1.60;0.20;;;13.60;96.70;;;;;;5055644;28;20032;-63
2023/12/25 09:43:22;;;;;;;1.17;0.13;;;13.60;97.20;;;;;;5055946;28;20036;-64
2023/12/25 09:45:49;;;;;;;0.28;0.10;;;13.60;97.30;;;;;;5055608;28;20060;-63
2023/12/25 09:48:17;;;;;;;0.25;0.03;;;13.60;97.40;;;;;;5055603;28;20107;-63
2023/12/25 09:50:44;;;;;;;0.97;0.10;;;13.60;97.10;;;;;;5055656;28;20029;-63
2023/12/25 09:53:10;;;;;;;0.20;0.10;;;13.60;97.10;;;;;;5055475;28;20045;-63
2023/12/25 09:55:36;;;;;;;0.68;0.13;;;13.60;96.80;;;;;;5055024;28;20025;-63
2023/12/25 09:58:06;;;;;;;0.30;0.20;;;13.60;96.90;;;;;;5055086;28;20506;-63
2023/12/25 10:00:32;;;;;;;1.42;0.40;;;13.60;96.70;;;;;;5054589;28;20029;-63
2023/12/25 10:02:59;;;;;;;0.30;0.10;;;13.60;96.70;;;;;;5055378;28;20413;-63
2023/12/25 10:05:26;;;;;;;0.40;0.10;;;13.50;96.50;;;;;;5055988;28;20055;-63
2023/12/25 10:07:51;;;;;;;0.30;0.10;;;13.50;96.60;;;;;;5054525;28;20060;-63
2023/12/25 10:10:17;;;;;;;0.90;0.10;;;13.50;96.40;;;;;;5053854;28;20075;-63
2023/12/25 10:12:44;;;;;;;3.13;0.10;;;13.50;96.40;;;;;;5054919;28;20053;-63
2023/12/25 10:15:16;;;;;;;1.08;0.10;;;13.50;96.40;;;;;;5053118;28;20443;-63
2023/12/25 10:17:42;;;;;;;2.17;0.10;;;13.50;96.40;;;;;;5055130;28;20116;-63
2023/12/25 10:20:08;;;;;;;0.82;0.20;;;13.40;96.40;;;;;;5053657;28;20025;-63
2023/12/25 10:22:39;;;;;;;0.65;0.20;;;13.50;96.70;;;;;;5054866;28;20032;-63
2023/12/25 10:25:12;;;;;;;1.50;0.20;;;13.40;96.70;;;;;;5054826;28;20028;-63
2023/12/25 10:27:42;;;;;;;2.05;0.80;;;13.40;96.90;;;;;;5054989;28;20116;-63
2023/12/25 10:30:17;;;;;;;1.00;0.20;;;13.50;97.20;;;;;;5054722;28;20071;-63
2023/12/25 10:32:43;;;;;;;0.45;0.20;;;13.50;97.40;;;;;;5054925;28;20116;-63
2023/12/25 10:35:14;;;;;;;0.85;0.10;;;13.50;97.40;;;;;;5053363;28;20446;-63
2023/12/25 10:37:43;;;;;;;0.57;0.08;;;13.50;97.50;;;;;;5053615;28;20094;-63
2023/12/25 10:40:21;;;;;;;0.65;0.10;;;13.50;97.60;;;;;;5054761;28;20033;-63
2023/12/25 10:42:49;;;;;;;0.90;0.00;;;13.50;97.80;;;;;;5053225;28;20059;-63
2023/12/25 10:45:22;;;;;;;1.48;0.10;;;13.50;97.90;;;;;;5054933;28;20024;-63
2023/12/25 10:47:50;;;;;;;0.35;0.20;;;13.50;97.80;;;;;;5053277;28;20040;-63
2023/12/25 10:50:36;;;;;;;1.17;0.10;;;13.50;97.90;;;;;;5054547;28;20027;-64
2023/12/25 10:53:03;;;;;;;1.27;0.20;;;13.50;97.70;;;;;;5054605;28;20052;-63
2023/12/25 10:55:38;;;;;;;1.77;0.10;;;13.50;97.70;;;;;;5054288;28;20040;-63
2023/12/25 10:58:06;;;;;;;0.30;0.00;;;13.50;97.60;;;;;;5054319;28;20484;-63
2023/12/25 11:00:35;;;;;;;0.13;0.10;;;13.50;97.70;;;;;;5054708;28;20529;-63
2023/12/25 11:03:03;;;;;;;0.47;0.15;;;13.40;97.60;;;;;;5053194;28;20032;-64
2023/12/25 11:05:31;;;;;;;1.17;0.13;;;13.40;97.80;;;;;;5053904;28;20381;-63
2023/12/25 11:07:58;;;;;;;2.58;0.28;;;13.30;97.70;;;;;;5054243;28;20040;-64
2023/12/25 11:10:26;;;;;;;1.65;0.10;;;13.30;97.90;;;;;;5054005;28;20102;-63
2023/12/25 11:12:54;;;;;;;2.03;0.20;;;13.30;97.70;;;;;;5053722;28;20036;-63
2023/12/25 11:15:20;;;;;;;0.63;0.20;;;13.20;97.70;;;;;;5054529;28;20098;-63
2023/12/25 11:17:45;;;;;;;1.80;0.10;;;13.30;97.50;;;;;;5053860;28;20064;-63
2023/12/25 11:20:12;;;;;;;0.32;0.10;;;13.30;97.40;;;;;;5053895;28;20037;-64
2023/12/25 11:22:40;;;;;;;1.17;0.15;;;13.30;97.50;;;;;;5054105;28;20028;-63
2023/12/25 11:25:13;;;;;;;0.20;0.00;;;13.40;97.40;;;;;;5053901;28;20104;-62
2023/12/25 11:27:39;;;;;;;0.47;0.10;;;13.50;96.70;;;;;;5053018;28;20051;-63
2023/12/25 11:30:09;;;;;;;0.75;0.32;;;13.60;96.50;;;;;;5052779;28;20025;-68
2023/12/25 11:32:36;;;;;;;1.63;0.32;;;13.70;96.50;;;;;;5051280;28;20025;-64
2023/12/25 11:35:02;;;;;;;0.22;0.20;;;13.70;96.30;;;;;;5052849;28;20484;-63
2023/12/25 11:37:28;;;;;;;2.45;0.28;;;13.80;96.40;;;;;;5054159;28;20083;-64
2023/12/25 11:39:59;;;;;;;0.60;0.30;;;14.30;96.00;;;;;;5053581;28;20025;-63
2023/12/25 11:42:25;;;;;;;2.25;0.20;;;14.90;95.00;;;;;;5053648;28;20021;-63
2023/12/25 11:44:54;;;;;;;1.55;0.30;;;15.00;94.40;;;;;;5053282;28;20104;-63
2023/12/25 11:47:29;;;;;;;2.38;0.55;;;15.10;94.10;;;;;;5053668;28;20024;-63
2023/12/25 11:49:57;;;;;;;0.10;0.10;;;15.20;93.70;;;;;;5053391;28;20021;-63
2023/12/25 11:52:53;;;;;;;0.45;0.20;;;15.00;93.40;;;;;;5053607;28;20052;-63
2023/12/25 11:55:21;;;;;;;0.40;0.17;;;14.90;93.80;;;;;;5052554;28;20033;-63
2023/12/25 11:57:47;;;;;;;4.80;0.30;;;14.80;93.70;;;;;;5053476;28;20028;-63
2023/12/25 12:00:18;;;;;;;1.27;0.20;;;14.80;93.50;;;;;;5053388;28;20033;-63
2023/12/25 12:02:44;;;;;;;0.70;0.17;;;14.80;93.20;;;;;;5053479;28;20036;-63
2023/12/25 12:05:11;;;;;;;0.32;0.13;;;14.70;93.00;;;;;;5053447;28;20036;-63
2023/12/25 12:07:37;;;;;;;1.58;0.20;;;14.80;93.00;;;;;;5053208;28;20043;-63
2023/12/25 12:10:03;;;;;;;0.73;0.10;;;15.00;92.90;;;;;;5053386;28;20096;-63
2023/12/25 12:12:28;;;;;;;0.45;0.20;;;15.10;92.60;;;;;;5053519;28;20025;-63
2023/12/25 12:14:54;;;;;;;0.80;0.20;;;15.10;92.60;;;;;;5053001;28;20060;-63
2023/12/25 12:17:20;;;;;;;0.30;0.10;;;15.20;92.60;;;;;;5053442;28;20076;-63
2023/12/25 12:19:46;;;;;;;0.17;0.17;;;15.50;92.20;;;;;;5053515;28;20111;-67
2023/12/25 12:22:12;;;;;;;1.40;0.10;;;15.40;92.10;;;;;;5053341;28;20053;-64
2023/12/25 12:24:38;;;;;;;0.80;0.22;;;15.40;92.10;;;;;;5051967;28;20025;-63
2023/12/25 12:27:07;;;;;;;1.15;0.40;;;15.50;91.80;;;;;;5053355;28;20033;-63
2023/12/25 12:29:33;;;;;;;0.60;0.25;;;15.80;91.10;;;;;;5053095;28;20495;-63
2023/12/25 12:31:59;;;;;;;0.70;0.40;;;15.40;90.70;;;;;;5053293;28;20025;-63
2023/12/25 12:34:24;;;;;;;0.15;0.13;;;14.90;91.30;;;;;;5050277;28;20056;-63
2023/12/25 12:36:58;;;;;;;0.90;0.35;;;14.60;91.60;;;;;;5053080;28;20106;-63
2023/12/25 12:39:27;;;;;;;0.95;0.10;;;14.20;92.10;;;;;;5056496;28;20357;-63
2023/12/25 12:41:53;;;;;;;2.15;0.20;;;14.00;92.40;;;;;;5056498;28;20021;-63
2023/12/25 12:44:19;;;;;;;0.85;0.15;;;13.90;92.70;;;;;;5057052;28;20077;-63